Davenport, WA

8:31 AM PDT on July 01, 2015 (GMT -0700)
291 @ 231 | | Change Station
CLOSE
Current Station
Personal Weather Station
Location: Ford, WA
Elevation: 1594 ft
Nearby Weather Stations

Elev 1594 ft 47.85 °N, 117.85 °W | Updated 12 seconds ago

Clear
Clear
81.9 °F
Feels Like 82 °F
N
3.4
Wind Variable Wind from WNW
Gusts 4.9 mph

Today
High -- | Low -- °F
--% Chance of Precip.
Yesterday
High -- | Low -- °F
Precip. -- in
4:58 AM 8:54 PM
Full, 100% visible
Pressure 29.96 in
Visibility 10.0 miles
Clouds Clear
Heat Index 82 °F
Dew Point 57 °F
Humidity 42%
Rainfall 0.00 in
Snow Depth Not available.
UV 2.0 out of 12
Pollen 6.40 out of 12
Air Quality Not available.
Flu Activity Not available.
METAR KSKA 011458Z AUTO 04008KT 10SM CLR 24/11 A3002 RMK AO2 SLP146 T02440107 52010

More Conditions Fewer Conditions

Pressure 29.96 in
Visibility 10.0 miles
Clouds Clear
Heat Index 82 °F
Dew Point 57 °F
Humidity 42%
Rainfall 0.00 in
Snow Depth Not available.
UV 2.0 out of 12
Pollen 6.40 out of 12
Air Quality Not available.
Flu Activity Not available.
METAR KSKA 011458Z AUTO 04008KT 10SM CLR 24/11 A3002 RMK AO2 SLP146 T02440107 52010

More Conditions Fewer Conditions

10-Day Weather Forecast

×

Almanac

Astronomy

Jul. 01, 2015 Rise Set
Actual Time
Civil Twilight
Nautical Twilight
Astronomical Twilight
Moon
Length of Visible Light
Length of Day
Tomorrow will be .
, % of the Moon is Illuminated

Today's Extremes

State Highs State Lows

Community

WunderPhotos

Upload Photos

1,834,228 photos uploaded!

WunderBlogs® & News

Nearby

Air Quality

  Air Quality AQ Index Pollutant
Not available.

Snow Depth

Station Depth Elevation

Earthquake Activity

City Distance Mag. Time & Date
Minimum magnitude displayed is 2.5.

Coastal Water Temperatures

Place Temperature

Stations

Nearby Weather Stations

Station Location Temp. Windchill Dew Point Humidity Wind Precip. Elev Updated Type